Time;durP1;ratioP1;P1;durP2;ratioP2;P2;SDS_P1;SDS_P2;PMS_P1;PMS_P2;Temp;Humidity;BMP_temperature;BMP_pressure;BME280_temperature;BME280_humidity;BME280_pressure;Samples;Min_cycle;Max_cycle;Signal;HPM_P1;HPM_P2
2021/01/02 00:00:49;;;;;;;17.20;8.00;;;4.50;99.90;;;;;;5006330;28;20473;-68
2021/01/02 00:03:44;;;;;;;9.33;5.90;;;4.40;99.90;;;;;;5006682;28;20480;-69
2021/01/02 00:06:20;;;;;;;9.83;6.20;;;4.50;99.90;;;;;;4974639;28;20449;-68
2021/01/02 00:08:51;;;;;;;9.47;6.40;;;4.40;99.90;;;;;;5006749;28;20444;-67
2021/01/02 00:11:28;;;;;;;10.40;7.10;;;4.50;99.90;;;;;;5004593;28;20431;-68
2021/01/02 00:14:22;;;;;;;11.80;6.87;;;4.50;99.90;;;;;;5006108;28;20418;-69
2021/01/02 00:17:06;;;;;;;9.50;6.50;;;4.50;99.90;;;;;;5006642;28;20476;-68
2021/01/02 00:20:02;;;;;;;9.20;6.60;;;4.50;99.90;;;;;;5007325;28;20476;-69
2021/01/02 00:22:34;;;;;;;13.07;7.13;;;4.50;99.90;;;;;;5007510;28;20477;-68
2021/01/02 00:25:10;;;;;;;13.87;7.73;;;4.60;99.90;;;;;;5007462;28;20422;-68
2021/01/02 00:27:45;;;;;;;9.57;6.10;;;4.60;99.90;;;;;;5006898;28;20934;-68
2021/01/02 00:30:40;;;;;;;9.40;5.10;;;4.60;99.90;;;;;;5006485;28;20433;-69
2021/01/02 00:33:17;;;;;;;5.37;4.50;;;4.60;99.90;;;;;;5005127;28;20551;-67
2021/01/02 04:59:13;;;;;;;13.70;9.10;;;2.50;99.90;;;;;;5501088;23;20570;-68
2021/01/02 05:01:41;;;;;;;18.77;10.97;;;2.50;99.90;;;;;;4986636;28;20871;-67
2021/01/02 05:04:08;;;;;;;15.40;9.13;;;2.50;99.90;;;;;;4984546;28;20962;-68
2021/01/02 05:06:46;;;;;;;16.27;9.33;;;2.50;99.90;;;;;;4992489;28;20470;-68
2021/01/02 05:09:12;;;;;;;14.00;8.90;;;2.50;99.90;;;;;;4984909;28;20792;-68
2021/01/02 05:11:39;;;;;;;16.90;9.10;;;2.50;99.90;;;;;;4988556;28;20833;-68
2021/01/02 05:14:07;;;;;;;15.43;9.80;;;2.40;99.90;;;;;;4991230;28;20446;-68
2021/01/02 05:16:36;;;;;;;13.23;8.40;;;2.50;99.90;;;;;;4985802;28;20549;-68
2021/01/02 05:19:06;;;;;;;22.00;11.20;;;2.50;99.90;;;;;;4979239;28;20493;-68
2021/01/02 05:21:35;;;;;;;15.77;9.33;;;2.50;99.90;;;;;;4982282;28;20868;-68
2021/01/02 05:24:09;;;;;;;14.50;9.33;;;2.50;99.90;;;;;;4987117;28;20477;-68
2021/01/02 05:26:37;;;;;;;16.13;9.00;;;2.40;99.90;;;;;;4987375;28;20647;-68
2021/01/02 05:29:18;;;;;;;14.40;8.70;;;2.40;99.90;;;;;;4986530;28;20478;-69
2021/01/02 05:31:48;;;;;;;13.33;8.13;;;2.40;99.90;;;;;;4987326;28;20441;-69
2021/01/02 05:34:16;;;;;;;14.70;8.00;;;2.40;99.90;;;;;;4985852;28;20483;-69
2021/01/02 05:36:42;;;;;;;14.37;9.20;;;2.50;99.90;;;;;;4986008;28;20530;-69
2021/01/02 05:39:11;;;;;;;15.80;9.53;;;2.50;99.90;;;;;;4982037;28;20506;-69
2021/01/02 05:41:52;;;;;;;16.90;11.17;;;2.50;99.90;;;;;;4986452;28;20459;-69
2021/01/02 05:44:20;;;;;;;15.40;7.77;;;2.50;99.90;;;;;;4981404;28;20553;-68
2021/01/02 05:46:48;;;;;;;13.23;7.60;;;2.60;99.90;;;;;;4982073;28;20487;-68
2021/01/02 05:49:36;;;;;;;16.40;8.87;;;2.60;99.90;;;;;;4981709;28;20435;-68
2021/01/02 05:52:04;;;;;;;15.50;9.63;;;2.60;99.90;;;;;;4982108;28;20864;-69
2021/01/02 05:54:32;;;;;;;15.43;9.57;;;2.70;99.90;;;;;;4982455;28;20534;-69
2021/01/02 05:57:01;;;;;;;16.90;10.50;;;2.60;99.90;;;;;;4983401;28;20474;-68
2021/01/02 05:59:28;;;;;;;16.73;9.30;;;2.60;99.90;;;;;;4981809;28;20502;-68
2021/01/02 06:01:55;;;;;;;15.50;9.40;;;2.60;99.90;;;;;;4982044;28;20614;-69
2021/01/02 06:04:22;;;;;;;13.90;9.70;;;2.60;99.90;;;;;;4981708;28;20595;-69
2021/01/02 06:07:06;;;;;;;18.70;10.80;;;2.50;99.90;;;;;;4981625;28;20542;-69
2021/01/02 06:09:33;;;;;;;17.70;9.47;;;2.50;99.90;;;;;;4981964;28;20478;-69
2021/01/02 06:12:04;;;;;;;16.37;9.37;;;2.40;99.90;;;;;;4981488;28;20518;-68
2021/01/02 06:14:33;;;;;;;16.90;9.47;;;2.40;99.90;;;;;;4981614;28;20466;-68
2021/01/02 06:17:06;;;;;;;14.47;8.63;;;2.40;99.90;;;;;;4981087;28;20461;-68
2021/01/02 06:19:33;;;;;;;16.07;9.53;;;2.50;99.90;;;;;;4981220;28;20466;-69
2021/01/02 06:22:00;;;;;;;14.87;9.27;;;2.40;99.90;;;;;;4981467;28;20450;-68
2021/01/02 06:24:27;;;;;;;21.47;10.27;;;2.50;99.90;;;;;;4981423;28;20526;-69
2021/01/02 06:26:53;;;;;;;18.40;10.37;;;2.50;99.90;;;;;;4981176;28;20477;-68
2021/01/02 06:29:20;;;;;;;15.30;10.10;;;2.60;99.90;;;;;;4980768;28;20451;-69
2021/01/02 06:31:47;;;;;;;16.60;10.40;;;2.60;99.90;;;;;;4981762;28;20477;-68
2021/01/02 06:34:15;;;;;;;13.37;8.03;;;2.50;99.90;;;;;;4981251;28;20538;-68
2021/01/02 06:36:41;;;;;;;12.80;8.97;;;2.60;99.90;;;;;;4980889;28;20454;-68
2021/01/02 06:39:21;;;;;;;15.97;9.77;;;2.60;99.90;;;;;;4980564;28;20483;-69
2021/01/02 06:41:48;;;;;;;18.00;10.30;;;2.60;99.90;;;;;;4980762;28;20549;-69
2021/01/02 06:44:40;;;;;;;17.07;10.57;;;2.60;99.90;;;;;;4981417;28;20507;-69
2021/01/02 06:47:21;;;;;;;13.97;9.07;;;2.60;99.90;;;;;;4980528;28;20533;-69
2021/01/02 06:49:50;;;;;;;22.47;12.30;;;2.60;99.90;;;;;;4980677;28;20434;-69
2021/01/02 06:52:29;;;;;;;22.13;12.27;;;2.60;99.90;;;;;;4980412;28;20562;-68
2021/01/02 06:55:21;;;;;;;17.77;10.33;;;2.60;99.90;;;;;;4980374;28;20514;-67
2021/01/02 06:57:48;;;;;;;18.20;10.70;;;2.60;99.90;;;;;;4981254;28;20573;-69
2021/01/02 07:00:22;;;;;;;20.17;11.03;;;2.60;99.90;;;;;;4984210;28;20484;-69
2021/01/02 07:02:49;;;;;;;14.40;9.30;;;2.60;99.90;;;;;;4976925;28;20458;-69
2021/01/02 07:05:44;;;;;;;14.97;8.67;;;2.60;99.90;;;;;;4977495;28;20534;-68
2021/01/02 07:08:42;;;;;;;16.00;10.53;;;2.60;99.90;;;;;;4982630;28;20459;-68
2021/01/02 07:11:25;;;;;;;17.60;10.97;;;2.60;99.90;;;;;;4980664;28;20539;-69
2021/01/02 07:14:06;;;;;;;18.70;11.30;;;2.60;99.90;;;;;;4979799;28;20447;-68
2021/01/02 07:16:33;;;;;;;19.47;11.50;;;2.60;99.90;;;;;;4979547;28;20534;-69
2021/01/02 07:19:00;;;;;;;17.73;9.90;;;2.70;99.90;;;;;;4980259;28;20577;-68
2021/01/02 07:21:34;;;;;;;14.93;9.73;;;2.70;99.90;;;;;;4982341;28;20458;-68
2021/01/02 07:24:22;;;;;;;15.83;8.83;;;2.60;99.90;;;;;;4985014;28;20515;-69
2021/01/02 07:26:49;;;;;;;16.00;9.87;;;2.50;99.90;;;;;;4983925;28;20905;-68
2021/01/02 07:29:18;;;;;;;15.70;9.93;;;2.50;99.90;;;;;;4986224;28;20485;-68
2021/01/02 07:31:45;;;;;;;14.67;8.73;;;2.50;99.90;;;;;;4981817;28;20527;-68
2021/01/02 07:34:21;;;;;;;14.33;9.20;;;2.50;99.90;;;;;;4985375;28;20478;-68
2021/01/02 07:36:49;;;;;;;18.17;9.37;;;2.40;99.90;;;;;;4985381;28;20549;-67
2021/01/02 07:39:17;;;;;;;13.10;9.10;;;2.40;99.90;;;;;;4984772;28;20475;-68
2021/01/02 07:41:43;;;;;;;17.27;10.40;;;2.40;99.90;;;;;;4984477;28;20474;-69
2021/01/02 07:44:10;;;;;;;13.60;8.30;;;2.40;99.90;;;;;;4983693;28;20447;-69
2021/01/02 07:46:42;;;;;;;16.73;8.70;;;2.40;99.90;;;;;;4983192;28;20489;-69
2021/01/02 07:49:09;;;;;;;16.50;9.67;;;2.40;99.90;;;;;;4984111;28;20439;-69
2021/01/02 07:51:35;;;;;;;18.40;9.40;;;2.40;99.90;;;;;;4984293;28;20518;-69
2021/01/02 07:54:03;;;;;;;14.87;8.10;;;2.40;99.90;;;;;;4984035;28;20459;-69
2021/01/02 07:56:36;;;;;;;13.50;9.43;;;2.50;99.90;;;;;;4983919;28;20602;-68
2021/01/02 07:59:21;;;;;;;19.67;12.00;;;2.50;99.90;;;;;;4982984;28;20494;-68
2021/01/02 08:01:52;;;;;;;15.03;9.37;;;2.50;99.90;;;;;;4980980;28;20470;-68
2021/01/02 08:04:19;;;;;;;19.30;10.37;;;2.60;99.90;;;;;;4979566;28;20842;-68
2021/01/02 08:06:49;;;;;;;17.53;8.90;;;2.60;99.90;;;;;;4978962;28;20462;-68
2021/01/02 08:09:17;;;;;;;17.43;10.10;;;2.60;99.90;;;;;;4987384;28;20911;-69
2021/01/02 08:11:52;;;;;;;14.63;9.00;;;2.60;99.90;;;;;;4982521;28;20493;-69
2021/01/02 08:14:18;;;;;;;15.63;9.90;;;2.70;99.90;;;;;;4982606;28;20465;-68
2021/01/02 08:17:10;;;;;;;13.37;8.70;;;2.70;99.90;;;;;;4982784;28;20505;-68
2021/01/02 08:19:38;;;;;;;16.13;9.33;;;2.70;99.90;;;;;;4968275;28;20577;-69
2021/01/02 08:22:07;;;;;;;15.57;9.90;;;2.70;99.90;;;;;;4982394;28;20465;-68
2021/01/02 08:24:35;;;;;;;18.60;9.57;;;2.80;99.90;;;;;;4981575;28;20483;-68
2021/01/02 08:27:02;;;;;;;14.23;9.20;;;2.90;99.90;;;;;;4981648;28;20463;-69
2021/01/02 08:29:32;;;;;;;14.20;9.63;;;2.90;99.90;;;;;;4982593;28;20459;-69
2021/01/02 08:32:04;;;;;;;13.17;8.83;;;2.90;99.90;;;;;;4982443;28;20537;-69
2021/01/02 08:34:33;;;;;;;18.40;9.90;;;2.90;99.90;;;;;;4978675;28;20529;-70
2021/01/02 08:37:09;;;;;;;13.83;7.87;;;3.00;99.90;;;;;;4978934;28;20764;-69
2021/01/02 08:39:39;;;;;;;17.60;9.60;;;3.00;99.90;;;;;;4979067;28;20526;-68
2021/01/02 08:42:07;;;;;;;15.20;9.37;;;2.90;99.90;;;;;;4989638;28;20553;-69
2021/01/02 08:44:35;;;;;;;17.03;9.80;;;2.90;99.90;;;;;;4998123;28;20545;-68
2021/01/02 08:47:03;;;;;;;18.50;9.30;;;3.00;99.90;;;;;;4998480;28;20593;-65
2021/01/02 08:49:40;;;;;;;17.13;9.40;;;3.00;99.90;;;;;;4998064;28;20532;-64
2021/01/02 08:52:18;;;;;;;15.10;9.67;;;3.10;99.90;;;;;;4997780;28;20481;-64
2021/01/02 08:54:47;;;;;;;14.87;8.87;;;3.20;99.90;;;;;;5003189;28;21099;-72
2021/01/02 08:57:30;;;;;;;17.80;10.10;;;3.30;99.90;;;;;;5004027;28;20446;-72
2021/01/02 09:00:28;;;;;;;16.50;9.40;;;3.20;99.90;;;;;;4994747;28;20588;-71
2021/01/02 09:03:06;;;;;;;16.93;10.30;;;3.20;99.90;;;;;;4996369;28;20485;-71
2021/01/02 09:05:34;;;;;;;20.10;9.70;;;3.20;99.90;;;;;;5005709;28;20449;-70
2021/01/02 09:08:02;;;;;;;17.83;10.93;;;3.30;99.90;;;;;;5003495;28;20453;-73
2021/01/02 09:10:35;;;;;;;20.27;12.20;;;3.40;99.90;;;;;;5004265;28;20441;-74
2021/01/02 09:13:10;;;;;;;19.70;10.90;;;3.40;99.90;;;;;;5003259;28;20536;-72
2021/01/02 09:15:45;;;;;;;18.00;10.30;;;3.50;99.90;;;;;;4996632;28;20558;-71
2021/01/02 09:18:12;;;;;;;18.83;11.47;;;3.50;99.90;;;;;;5010005;28;20500;-71
2021/01/02 09:20:39;;;;;;;15.00;8.67;;;3.60;99.90;;;;;;4997170;28;21014;-71
2021/01/02 09:23:08;;;;;;;16.93;10.70;;;3.60;99.90;;;;;;4999256;28;20459;-72
2021/01/02 09:25:36;;;;;;;16.53;9.37;;;3.60;99.90;;;;;;4991137;28;20903;-71
2021/01/02 09:28:17;;;;;;;19.27;11.47;;;3.60;99.90;;;;;;5003595;28;20445;-72
2021/01/02 09:30:45;;;;;;;20.00;11.20;;;3.70;99.90;;;;;;5009721;28;20553;-71
2021/01/02 09:33:12;;;;;;;21.47;11.83;;;3.70;99.90;;;;;;5004797;28;20601;-70
2021/01/02 09:35:40;;;;;;;15.90;10.30;;;3.80;99.90;;;;;;5009239;28;20453;-71
2021/01/02 09:38:06;;;;;;;20.63;10.53;;;3.80;99.90;;;;;;5009011;28;20531;-72
2021/01/02 09:40:35;;;;;;;16.00;9.70;;;3.70;99.90;;;;;;5009605;28;20438;-71
2021/01/02 09:43:03;;;;;;;16.37;10.77;;;3.70;99.90;;;;;;5009856;28;20454;-72
2021/01/02 09:45:30;;;;;;;18.10;9.80;;;3.70;99.90;;;;;;5007580;28;20466;-71
2021/01/02 09:47:56;;;;;;;15.57;9.70;;;3.70;99.90;;;;;;4987450;28;20454;-72
2021/01/02 09:50:23;;;;;;;18.53;12.00;;;3.70;99.90;;;;;;4985337;28;20454;-72
2021/01/02 09:52:49;;;;;;;16.37;9.13;;;3.80;99.90;;;;;;4984568;28;20546;-72
2021/01/02 09:55:16;;;;;;;15.30;9.43;;;3.80;99.90;;;;;;5005514;28;20450;-71
2021/01/02 09:57:46;;;;;;;17.47;10.57;;;3.80;99.90;;;;;;5008297;28;20997;-72
2021/01/02 10:00:14;;;;;;;24.00;11.07;;;3.80;99.90;;;;;;5001839;28;20496;-74
2021/01/02 10:02:40;;;;;;;19.70;11.40;;;3.70;99.90;;;;;;4998195;28;20537;-74
2021/01/02 10:05:08;;;;;;;17.07;10.13;;;3.70;99.90;;;;;;4998080;28;20446;-74
2021/01/02 10:07:36;;;;;;;20.10;12.03;;;3.70;99.90;;;;;;4994740;28;20502;-72
2021/01/02 10:10:03;;;;;;;19.03;10.83;;;3.70;99.90;;;;;;4981079;28;20543;-73
2021/01/02 10:12:30;;;;;;;15.07;8.67;;;3.70;99.90;;;;;;4998980;28;20484;-72
2021/01/02 10:14:57;;;;;;;18.90;10.73;;;3.80;99.90;;;;;;5001927;28;20494;-71
2021/01/02 10:17:27;;;;;;;18.03;10.10;;;3.90;99.90;;;;;;4999919;28;20524;-73
2021/01/02 10:19:57;;;;;;;14.43;8.60;;;4.00;99.90;;;;;;4996386;28;20576;-73
2021/01/02 10:22:24;;;;;;;17.33;11.70;;;4.00;99.90;;;;;;4996749;28;20466;-73
2021/01/02 10:27:27;;;;;;;23.27;10.77;;;4.00;99.90;;;;;;5259155;23;20833;-73
2021/01/02 10:29:55;;;;;;;16.13;10.83;;;4.00;99.90;;;;;;4997708;28;20820;-72
2021/01/02 10:32:24;;;;;;;21.53;11.97;;;4.00;99.90;;;;;;4996417;28;20458;-72
2021/01/02 10:34:51;;;;;;;22.33;11.40;;;4.10;99.90;;;;;;4997654;28;20490;-71
2021/01/02 10:37:19;;;;;;;16.97;9.93;;;4.10;99.90;;;;;;5000473;28;20549;-72
2021/01/02 10:44:56;;;;;;;18.07;10.97;;;4.30;99.90;;;;;;5383635;23;20806;-72
2021/01/02 10:47:26;;;;;;;25.53;13.90;;;4.30;99.90;;;;;;4996809;28;20917;-72
2021/01/02 10:49:53;;;;;;;21.70;13.77;;;4.40;99.90;;;;;;4996439;28;20545;-72
2021/01/02 10:52:21;;;;;;;24.90;13.10;;;4.40;99.90;;;;;;4997894;28;20469;-75
2021/01/02 10:54:49;;;;;;;22.70;12.67;;;4.60;99.90;;;;;;4995642;28;21026;-73
2021/01/02 10:57:17;;;;;;;16.00;10.20;;;4.70;99.90;;;;;;4996605;28;20521;-73
2021/01/02 10:59:44;;;;;;;19.20;10.13;;;4.90;99.90;;;;;;4995220;28;20492;-73
2021/01/02 11:02:11;;;;;;;15.47;9.00;;;5.00;99.90;;;;;;4992732;28;20497;-73
2021/01/02 11:04:38;;;;;;;19.00;12.07;;;5.00;99.90;;;;;;4995629;28;20837;-73
2021/01/02 11:07:06;;;;;;;15.13;9.10;;;5.00;99.90;;;;;;4996183;28;20450;-73
2021/01/02 11:09:32;;;;;;;19.17;10.60;;;5.10;99.90;;;;;;4994450;28;20537;-73
2021/01/02 11:11:59;;;;;;;17.60;9.67;;;5.10;99.90;;;;;;4996665;28;20485;-72
2021/01/02 11:14:26;;;;;;;16.50;9.47;;;5.10;99.90;;;;;;4992839;28;20771;-72
2021/01/02 11:16:52;;;;;;;15.97;10.70;;;5.10;99.90;;;;;;4980900;28;20439;-72
2021/01/02 11:19:21;;;;;;;20.50;10.73;;;5.20;99.90;;;;;;4980036;28;20518;-73
2021/01/02 11:21:50;;;;;;;20.13;11.83;;;5.30;99.90;;;;;;4981047;28;20463;-73
2021/01/02 11:24:18;;;;;;;18.50;12.47;;;5.30;99.90;;;;;;4979612;28;20509;-72
2021/01/02 11:26:45;;;;;;;17.83;10.90;;;5.30;99.90;;;;;;4980377;28;20530;-73
2021/01/02 11:29:11;;;;;;;19.10;10.00;;;5.30;99.90;;;;;;4995806;28;20442;-73
2021/01/02 11:31:38;;;;;;;18.77;10.73;;;5.40;99.90;;;;;;4997447;28;20793;-72
2021/01/02 11:34:05;;;;;;;13.67;9.30;;;5.40;99.90;;;;;;4998594;28;20596;-72
2021/01/02 11:36:32;;;;;;;21.07;11.10;;;5.50;99.90;;;;;;4998518;28;20549;-73
2021/01/02 11:39:00;;;;;;;18.93;11.57;;;5.60;99.90;;;;;;4993240;28;20546;-73
2021/01/02 11:41:31;;;;;;;17.70;11.73;;;5.60;99.90;;;;;;4988765;28;20493;-74
2021/01/02 11:43:58;;;;;;;16.60;9.40;;;5.60;99.90;;;;;;4998395;28;20509;-73
2021/01/02 11:46:28;;;;;;;17.33;9.67;;;5.60;99.90;;;;;;4982811;28;20471;-74
2021/01/02 11:48:55;;;;;;;14.40;10.50;;;5.60;99.90;;;;;;4983091;28;20451;-72
2021/01/02 11:51:21;;;;;;;16.07;10.87;;;5.50;99.90;;;;;;4992743;28;20492;-72
2021/01/02 11:53:48;;;;;;;15.27;10.60;;;5.50;99.90;;;;;;5014657;28;20469;-72
2021/01/02 11:56:18;;;;;;;19.30;10.93;;;5.50;99.90;;;;;;5009045;28;20498;-72
2021/01/02 11:58:45;;;;;;;28.60;12.47;;;5.50;99.90;;;;;;5018888;28;20536;-71
2021/01/02 12:01:11;;;;;;;19.60;12.00;;;5.60;99.90;;;;;;4997059;28;20453;-73
2021/01/02 12:03:37;;;;;;;19.93;11.60;;;5.50;99.90;;;;;;5017344;28;20512;-74
2021/01/02 12:06:04;;;;;;;18.77;11.20;;;5.50;99.90;;;;;;5023392;28;20434;-73
2021/01/02 12:08:30;;;;;;;17.27;11.00;;;5.50;99.90;;;;;;5004221;28;20446;-73
2021/01/02 12:10:57;;;;;;;15.73;11.23;;;5.50;99.90;;;;;;5003636;28;20442;-72
2021/01/02 12:13:25;;;;;;;19.80;11.13;;;5.50;99.90;;;;;;5007840;28;20521;-72
2021/01/02 12:15:52;;;;;;;21.23;11.70;;;5.50;99.90;;;;;;5008479;28;20496;-72
2021/01/02 12:18:18;;;;;;;21.80;11.63;;;5.60;99.90;;;;;;5007113;28;20564;-74
2021/01/02 12:20:46;;;;;;;23.10;12.50;;;5.60;99.90;;;;;;5010546;28;20955;-72
2021/01/02 12:23:13;;;;;;;21.13;13.10;;;5.60;99.90;;;;;;5012474;28;20824;-74
2021/01/02 12:25:40;;;;;;;19.83;11.80;;;5.70;99.90;;;;;;5017938;28;20473;-73
2021/01/02 12:28:06;;;;;;;20.43;11.90;;;5.70;99.90;;;;;;5008449;28;20529;-73
2021/01/02 12:30:36;;;;;;;17.13;11.53;;;5.70;99.90;;;;;;5004814;28;20454;-73
2021/01/02 12:33:03;;;;;;;18.73;11.40;;;5.80;99.90;;;;;;5014912;28;20535;-73
2021/01/02 12:35:29;;;;;;;16.37;10.57;;;5.80;99.90;;;;;;5004346;28;20548;-73
2021/01/02 12:37:55;;;;;;;19.73;11.87;;;5.80;99.90;;;;;;5009080;28;20548;-73
2021/01/02 12:40:23;;;;;;;22.73;13.00;;;5.80;99.90;;;;;;5007153;28;20481;-73
2021/01/02 12:42:49;;;;;;;21.60;12.60;;;5.90;99.90;;;;;;5006234;28;20481;-73
2021/01/02 12:45:16;;;;;;;24.57;13.17;;;6.00;99.90;;;;;;5009983;28;20489;-73
2021/01/02 12:47:43;;;;;;;21.00;12.00;;;6.00;99.90;;;;;;5012747;28;20476;-73
2021/01/02 12:50:11;;;;;;;23.53;14.27;;;6.20;99.90;;;;;;5005787;28;20538;-73
2021/01/02 12:52:38;;;;;;;21.50;13.67;;;6.20;99.90;;;;;;5007824;28;20540;-73
2021/01/02 12:55:05;;;;;;;27.40;16.20;;;6.30;99.90;;;;;;4993026;28;20445;-71
2021/01/02 12:57:32;;;;;;;24.10;12.87;;;6.40;99.90;;;;;;4998272;28;20537;-72
2021/01/02 12:59:58;;;;;;;21.17;14.50;;;6.40;99.90;;;;;;5011206;28;20485;-74
2021/01/02 13:02:25;;;;;;;22.20;13.00;;;6.40;99.90;;;;;;5000538;28;20474;-72
2021/01/02 13:04:52;;;;;;;20.93;11.67;;;6.40;99.90;;;;;;5005348;28;20500;-73
2021/01/02 13:07:21;;;;;;;19.50;10.97;;;6.30;99.90;;;;;;5008147;28;20978;-72
2021/01/02 13:09:49;;;;;;;16.70;11.07;;;6.30;99.90;;;;;;5009684;28;21010;-72
2021/01/02 13:12:18;;;;;;;18.00;11.43;;;6.30;99.90;;;;;;5014112;28;20480;-72
2021/01/02 13:14:45;;;;;;;16.23;11.00;;;6.30;99.90;;;;;;5009265;28;20544;-71
2021/01/02 13:17:14;;;;;;;15.90;10.60;;;6.30;99.90;;;;;;5004372;28;20468;-73
2021/01/02 13:19:44;;;;;;;20.30;10.97;;;6.30;99.90;;;;;;5006744;28;20956;-73
2021/01/02 13:22:12;;;;;;;22.13;12.17;;;6.30;99.90;;;;;;5011113;28;20837;-73
2021/01/02 13:24:43;;;;;;;22.27;13.10;;;6.30;99.90;;;;;;5012194;28;20450;-73
2021/01/02 13:27:10;;;;;;;21.97;13.93;;;6.30;99.90;;;;;;5010363;28;20457;-72
2021/01/02 13:29:39;;;;;;;21.13;12.77;;;6.30;99.90;;;;;;5007167;28;20481;-73
2021/01/02 13:32:07;;;;;;;21.37;13.03;;;6.30;99.90;;;;;;4999781;28;20803;-72
2021/01/02 13:34:36;;;;;;;20.43;12.60;;;6.30;99.90;;;;;;5001526;28;20929;-72
2021/01/02 13:37:03;;;;;;;20.10;12.00;;;6.30;99.90;;;;;;5011778;28;20524;-74
2021/01/02 13:39:32;;;;;;;30.50;18.57;;;6.20;99.90;;;;;;5004731;28;20969;-73
2021/01/02 13:41:59;;;;;;;29.40;16.27;;;6.20;99.90;;;;;;5011645;28;20523;-72
2021/01/02 13:44:26;;;;;;;17.10;12.30;;;6.20;99.90;;;;;;5009245;28;20623;-73
2021/01/02 13:46:57;;;;;;;24.43;14.20;;;6.20;99.90;;;;;;5006971;28;20872;-72
2021/01/02 13:49:24;;;;;;;19.50;12.80;;;6.10;99.90;;;;;;4997920;28;20992;-72
2021/01/02 13:51:50;;;;;;;20.73;12.70;;;6.10;99.90;;;;;;5011435;28;20453;-72
2021/01/02 13:54:16;;;;;;;27.60;12.67;;;6.00;99.90;;;;;;5007971;28;20458;-72
2021/01/02 13:56:46;;;;;;;22.17;11.87;;;6.10;99.90;;;;;;5013697;28;20483;-72
2021/01/02 13:59:31;;;;;;;17.90;12.43;;;6.00;99.90;;;;;;5000187;28;20478;-73
2021/01/02 14:01:59;;;;;;;16.47;11.27;;;6.00;99.90;;;;;;5007754;28;20422;-72
2021/01/02 14:04:26;;;;;;;19.73;12.17;;;6.00;99.90;;;;;;5008817;28;20453;-73
2021/01/02 14:06:54;;;;;;;20.10;12.00;;;6.00;99.90;;;;;;5003655;28;20602;-73
2021/01/02 14:09:22;;;;;;;28.93;12.77;;;5.90;99.90;;;;;;5005820;28;20774;-72
2021/01/02 14:11:49;;;;;;;21.90;13.77;;;6.00;99.90;;;;;;4991311;28;20569;-71
2021/01/02 14:14:15;;;;;;;19.20;10.97;;;6.00;99.90;;;;;;4998073;28;20617;-72
2021/01/02 14:16:48;;;;;;;17.27;11.20;;;5.90;99.90;;;;;;4998944;28;20561;-72
2021/01/02 14:19:17;;;;;;;19.43;11.27;;;5.90;99.90;;;;;;4982050;28;20622;-71
2021/01/02 14:21:44;;;;;;;27.77;13.93;;;5.90;99.90;;;;;;4977735;28;20505;-66
2021/01/02 14:24:11;;;;;;;17.07;11.27;;;5.90;99.90;;;;;;4997881;28;20461;-69
2021/01/02 14:26:38;;;;;;;20.77;12.37;;;5.90;99.90;;;;;;5006483;28;20533;-67
2021/01/02 14:29:05;;;;;;;26.77;13.80;;;5.90;99.90;;;;;;5017857;28;20532;-67
2021/01/02 14:31:33;;;;;;;25.07;13.93;;;5.80;99.90;;;;;;5018123;28;20496;-67
2021/01/02 14:34:03;;;;;;;25.77;13.70;;;5.90;99.90;;;;;;5004812;28;20513;-67
2021/01/02 14:36:29;;;;;;;23.20;13.13;;;5.80;99.90;;;;;;5009539;28;20448;-67
2021/01/02 14:38:58;;;;;;;22.47;14.17;;;5.90;99.90;;;;;;5005293;28;20514;-67
2021/01/02 14:41:25;;;;;;;22.67;12.33;;;5.80;99.90;;;;;;5003947;28;20476;-67
2021/01/02 14:43:51;;;;;;;25.90;15.00;;;5.80;99.90;;;;;;5006062;28;20513;-66
2021/01/02 14:46:19;;;;;;;25.60;14.17;;;5.80;99.90;;;;;;5012341;28;20546;-67
2021/01/02 14:48:46;;;;;;;22.40;14.73;;;5.80;99.90;;;;;;5005703;28;20442;-67
2021/01/02 14:51:12;;;;;;;30.90;16.40;;;5.90;99.90;;;;;;5004404;28;20525;-67
2021/01/02 14:53:39;;;;;;;30.17;15.23;;;5.90;99.90;;;;;;5019970;28;20466;-67
2021/01/02 14:56:06;;;;;;;20.20;12.30;;;5.80;99.90;;;;;;5006765;28;20802;-67
2021/01/02 14:58:32;;;;;;;31.33;18.73;;;5.80;99.90;;;;;;5004068;28;20966;-69
2021/01/02 15:00:59;;;;;;;31.50;15.70;;;5.80;99.90;;;;;;5009070;28;20446;-68
2021/01/02 15:03:26;;;;;;;27.13;16.10;;;5.70;99.90;;;;;;5009215;28;20541;-68
2021/01/02 15:05:52;;;;;;;25.43;13.93;;;5.70;99.90;;;;;;5017624;28;20456;-68
2021/01/02 15:08:19;;;;;;;22.60;13.00;;;5.60;99.90;;;;;;5016542;28;20485;-68
2021/01/02 15:10:45;;;;;;;24.10;13.20;;;5.60;99.90;;;;;;5018361;28;20496;-68
2021/01/02 15:13:12;;;;;;;19.67;12.80;;;5.60;99.90;;;;;;5022003;28;20480;-68
2021/01/02 15:15:38;;;;;;;18.33;12.47;;;5.60;99.90;;;;;;5008993;28;20479;-68
2021/01/02 15:18:05;;;;;;;28.50;13.10;;;5.50;99.90;;;;;;5009251;28;20469;-67
2021/01/02 15:20:32;;;;;;;24.77;13.40;;;5.50;99.90;;;;;;5008271;28;20449;-68
2021/01/02 15:22:59;;;;;;;19.70;13.60;;;5.50;99.90;;;;;;5004668;28;20541;-69
2021/01/02 15:25:26;;;;;;;21.80;13.60;;;5.50;99.90;;;;;;5002399;28;20446;-68
2021/01/02 15:27:52;;;;;;;24.20;13.10;;;5.50;99.90;;;;;;5012917;28;20825;-67
2021/01/02 15:30:19;;;;;;;22.70;12.50;;;5.50;99.90;;;;;;5007967;28;20467;-68
2021/01/02 15:32:46;;;;;;;19.13;12.50;;;5.50;99.90;;;;;;5009239;28;20853;-68
2021/01/02 15:35:13;;;;;;;19.30;11.60;;;5.40;99.90;;;;;;5009778;28;20528;-69
2021/01/02 15:37:40;;;;;;;20.03;14.10;;;5.50;99.90;;;;;;5010639;28;20475;-69
2021/01/02 15:40:08;;;;;;;19.57;13.43;;;5.40;99.90;;;;;;5003126;28;20520;-67
2021/01/02 15:42:34;;;;;;;24.80;14.13;;;5.40;99.90;;;;;;5003390;28;20445;-67
2021/01/02 15:45:01;;;;;;;21.47;13.23;;;5.30;99.90;;;;;;5002762;28;20488;-68
2021/01/02 15:47:28;;;;;;;20.47;12.93;;;5.30;99.90;;;;;;5001770;28;20469;-71
2021/01/02 15:49:54;;;;;;;24.70;14.30;;;5.20;99.90;;;;;;5012650;28;20528;-70
2021/01/02 15:52:23;;;;;;;19.57;13.27;;;5.20;99.90;;;;;;5004499;28;20462;-68
2021/01/02 15:54:51;;;;;;;29.37;15.30;;;5.20;99.90;;;;;;5016998;28;20516;-68
2021/01/02 15:57:19;;;;;;;28.47;15.20;;;5.10;99.90;;;;;;5003351;28;20535;-67
2021/01/02 15:59:46;;;;;;;24.20;14.17;;;5.10;99.90;;;;;;5012889;28;20574;-67
2021/01/02 16:02:12;;;;;;;23.90;15.73;;;5.10;99.90;;;;;;4993585;28;20753;-67
2021/01/02 16:04:39;;;;;;;27.77;18.97;;;5.10;99.90;;;;;;4982369;28;20475;-67
2021/01/02 16:07:08;;;;;;;28.00;17.00;;;5.00;99.90;;;;;;4998162;28;20550;-67
2021/01/02 16:09:36;;;;;;;36.23;19.03;;;4.90;99.90;;;;;;5004674;28;20520;-67
2021/01/02 16:12:05;;;;;;;24.00;16.90;;;4.90;99.90;;;;;;5005443;28;20449;-66
2021/01/02 16:14:33;;;;;;;27.00;17.23;;;4.80;99.90;;;;;;5002113;28;20484;-67
2021/01/02 16:17:00;;;;;;;25.03;15.20;;;4.80;99.90;;;;;;4995875;28;20474;-67
2021/01/02 16:19:28;;;;;;;25.73;16.43;;;4.80;99.90;;;;;;4984433;28;20514;-67
2021/01/02 16:21:56;;;;;;;24.10;14.87;;;4.80;99.90;;;;;;4984182;28;20509;-68
2021/01/02 16:24:23;;;;;;;28.27;19.10;;;4.80;99.90;;;;;;4984377;28;20463;-68
2021/01/02 16:26:50;;;;;;;26.97;15.50;;;4.80;99.90;;;;;;4984549;28;20471;-68
2021/01/02 16:29:20;;;;;;;28.80;15.20;;;4.80;99.90;;;;;;4984535;28;20439;-68
2021/01/02 16:31:49;;;;;;;27.30;15.93;;;4.90;99.90;;;;;;4984652;28;20871;-67
2021/01/02 16:34:18;;;;;;;25.40;15.83;;;4.80;99.90;;;;;;5001360;28;20488;-66
2021/01/02 16:36:44;;;;;;;23.60;14.77;;;4.80;99.90;;;;;;4998301;28;20934;-67
2021/01/02 16:39:12;;;;;;;30.30;15.47;;;4.70;99.90;;;;;;4998136;28;20544;-68
2021/01/02 16:41:38;;;;;;;23.10;15.00;;;4.70;99.90;;;;;;4998486;28;20529;-68
2021/01/02 16:44:05;;;;;;;30.47;15.87;;;4.60;99.90;;;;;;4998430;28;20513;-69
2021/01/02 16:46:33;;;;;;;31.63;15.10;;;4.60;99.90;;;;;;4999554;28;20508;-66
2021/01/02 16:49:02;;;;;;;25.90;15.27;;;4.60;99.90;;;;;;4999260;28;20477;-67
2021/01/02 16:51:30;;;;;;;28.50;16.40;;;4.60;99.90;;;;;;4999384;28;20464;-68
2021/01/02 16:54:00;;;;;;;29.73;14.90;;;4.50;99.90;;;;;;4998734;28;20458;-67
2021/01/02 16:56:28;;;;;;;22.67;13.20;;;4.50;99.90;;;;;;4999192;28;20473;-67
2021/01/02 16:58:55;;;;;;;26.83;15.00;;;4.50;99.90;;;;;;4998476;28;20565;-67
2021/01/02 17:01:25;;;;;;;23.70;14.73;;;4.50;99.90;;;;;;4998463;28;20536;-67
2021/01/02 17:03:53;;;;;;;24.63;15.63;;;4.40;99.90;;;;;;4998974;28;20859;-68
2021/01/02 17:06:23;;;;;;;26.03;13.83;;;4.40;99.90;;;;;;4998974;28;20457;-67
2021/01/02 17:08:50;;;;;;;24.70;13.23;;;4.40;99.90;;;;;;4998224;28;20525;-68
2021/01/02 17:11:29;;;;;;;23.63;14.93;;;4.30;99.90;;;;;;4980096;28;20935;-67
2021/01/02 17:13:56;;;;;;;21.07;13.50;;;4.30;99.90;;;;;;4979864;28;20449;-68
2021/01/02 17:16:25;;;;;;;20.83;13.40;;;4.30;99.90;;;;;;4983269;28;20549;-67
2021/01/02 17:18:52;;;;;;;21.90;13.40;;;4.30;99.90;;;;;;4983222;28;20469;-67
2021/01/02 17:21:20;;;;;;;20.87;14.20;;;4.30;99.90;;;;;;4983218;28;20923;-67
2021/01/02 17:23:48;;;;;;;22.47;14.53;;;4.20;99.90;;;;;;4983180;28;21047;-67